Time;durP1;ratioP1;P1;durP2;ratioP2;P2;SDS_P1;SDS_P2;PMS_P1;PMS_P2;Temp;Humidity;BMP_temperature;BMP_pressure;BME280_temperature;BME280_humidity;BME280_pressure;Samples;Min_cycle;Max_cycle;Signal;HPM_P1;HPM_P2
2022/10/29 00:01:16;;;;;;;10.50;10.00;;;;;;;-143.83;100.00;62900.06;5085001;28;20027;-65
2022/10/29 00:03:41;;;;;;;10.40;9.90;;;;;;;-143.83;100.00;62900.06;5082354;28;20032;-65
2022/10/29 00:06:10;;;;;;;9.90;9.40;;;;;;;-143.83;100.00;62900.06;5081551;28;20073;-66
2022/10/29 00:08:37;;;;;;;10.10;9.60;;;;;;;-143.83;100.00;62900.06;5085692;28;20085;-66
2022/10/29 00:11:17;;;;;;;10.13;9.63;;;;;;;-143.83;100.00;62900.06;5085862;28;20028;-66
2022/10/29 00:13:44;;;;;;;9.85;9.35;;;;;;;-143.83;100.00;62900.06;5080282;28;20044;-67
2022/10/29 00:16:15;;;;;;;9.90;9.40;;;;;;;-143.83;100.00;62900.06;5080903;28;20025;-66
2022/10/29 00:18:43;;;;;;;9.73;9.27;;;;;;;-143.83;100.00;62900.06;5083274;28;20024;-67
2022/10/29 00:21:12;;;;;;;9.55;9.10;;;;;;;-143.83;100.00;62900.06;5088464;28;20278;-66
2022/10/29 00:23:38;;;;;;;9.63;9.18;;;;;;;-143.83;100.00;62900.06;5086626;28;20487;-66
2022/10/29 00:26:04;;;;;;;9.50;9.10;;;;;;;-143.83;100.00;62900.06;5082344;28;20043;-66
2022/10/29 00:28:29;;;;;;;10.00;9.50;;;;;;;-143.83;100.00;62900.06;5081577;28;20475;-66
2022/10/29 00:30:55;;;;;;;10.27;9.77;;;;;;;-143.83;100.00;62900.06;5087705;28;20020;-66
2022/10/29 00:33:22;;;;;;;9.73;9.23;;;;;;;-143.83;100.00;62900.06;5089404;28;20024;-66
2022/10/29 00:36:15;;;;;;;9.63;9.13;;;;;;;-143.83;100.00;62900.06;5088832;28;20333;-66
2022/10/29 00:38:41;;;;;;;9.80;9.30;;;;;;;-143.83;100.00;62900.06;5081794;28;20035;-67
2022/10/29 00:41:11;;;;;;;9.80;9.30;;;;;;;-143.83;100.00;62900.06;5086211;28;20037;-67
2022/10/29 00:43:38;;;;;;;9.73;9.23;;;;;;;-143.83;100.00;62900.06;5086230;28;20034;-66
2022/10/29 00:46:10;;;;;;;10.77;10.20;;;;;;;-143.83;100.00;62900.06;5081331;28;20035;-66
2022/10/29 00:48:42;;;;;;;9.95;9.45;;;;;;;-143.83;100.00;62900.06;5079488;28;20016;-66
2022/10/29 00:51:11;;;;;;;10.20;9.70;;;;;;;-143.83;100.00;62900.06;5089503;28;20121;-66
2022/10/29 00:53:43;;;;;;;9.85;9.35;;;;;;;-143.83;100.00;62900.06;5080621;28;20028;-66
2022/10/29 00:56:09;;;;;;;10.20;9.70;;;;;;;-143.83;100.00;62900.06;5085147;28;20086;-66
2022/10/29 00:58:34;;;;;;;10.23;9.73;;;;;;;-143.83;100.00;62900.06;5083287;28;20025;-66
2022/10/29 01:01:01;;;;;;;10.40;9.90;;;;;;;-143.83;100.00;62900.06;5086033;28;20047;-66
2022/10/29 01:03:26;;;;;;;9.95;9.45;;;;;;;-143.83;100.00;62900.06;5087913;28;20066;-67
2022/10/29 01:05:52;;;;;;;10.30;9.80;;;;;;;-143.83;100.00;62900.06;5081836;28;20051;-66
2022/10/29 01:08:19;;;;;;;9.57;9.10;;;;;;;-143.83;100.00;62900.06;5079571;28;20119;-65
2022/10/29 01:11:21;;;;;;;9.93;9.43;;;;;;;-143.83;100.00;62900.06;5081606;28;20032;-65
2022/10/29 01:14:08;;;;;;;10.00;9.50;;;;;;;-143.83;100.00;62900.06;5082390;28;20386;-65
2022/10/29 01:17:04;;;;;;;9.98;9.48;;;;;;;-143.83;100.00;62900.06;5080785;28;20031;-67
2022/10/29 01:19:41;;;;;;;10.10;9.60;;;;;;;-143.83;100.00;62900.06;5083341;28;20093;-65
2022/10/29 01:22:19;;;;;;;10.05;9.55;;;;;;;-143.83;100.00;62900.06;5086999;28;20101;-65
2022/10/29 01:25:14;;;;;;;10.48;9.98;;;;;;;-143.83;100.00;62900.06;5083269;28;20002;-65
2022/10/29 01:27:58;;;;;;;;;;;;;;;-143.83;100.00;62900.06;5065624;28;20114;-66
2022/10/29 01:30:54;;;;;;;9.23;8.82;;;;;;;-143.83;100.00;62900.06;5087068;28;20423;-65
2022/10/29 01:33:28;;;;;;;9.85;9.35;;;;;;;-143.83;100.00;62900.06;5084472;28;20501;-66
2022/10/29 01:36:06;;;;;;;10.40;9.90;;;;;;;-143.83;100.00;62900.06;5083169;28;20028;-66
2022/10/29 01:38:48;;;;;;;9.90;9.40;;;;;;;-143.83;100.00;62900.06;5082084;28;21954;-66
2022/10/29 01:41:22;;;;;;;9.73;9.23;;;;;;;-143.83;100.00;62900.06;5085094;28;20029;-67
2022/10/29 01:44:00;;;;;;;9.48;9.02;;;;;;;-143.83;100.00;62900.06;5088013;28;20024;-66
2022/10/29 01:46:45;;;;;;;10.13;9.63;;;;;;;-143.83;100.00;62900.06;5087308;28;20047;-66
2022/10/29 01:49:16;;;;;;;9.90;9.40;;;;;;;-143.83;100.00;62900.06;5086134;28;20479;-67
2022/10/29 01:51:46;;;;;;;9.95;9.45;;;;;;;-143.83;100.00;62900.06;5085062;28;20130;-66
2022/10/29 01:54:11;;;;;;;9.98;9.48;;;;;;;-143.83;100.00;62900.06;5086077;28;20028;-67
2022/10/29 01:56:37;;;;;;;9.57;9.13;;;;;;;-143.83;100.00;62900.06;5082935;28;20042;-66
2022/10/29 01:59:07;;;;;;;10.43;9.93;;;;;;;-143.83;100.00;62900.06;5087009;28;20056;-68
2022/10/29 02:01:49;;;;;;;9.85;9.35;;;;;;;-143.83;100.00;62900.06;5084798;28;20089;-66
2022/10/29 02:04:38;;;;;;;9.75;9.25;;;;;;;-143.83;100.00;62900.06;5087903;28;20028;-66
2022/10/29 02:07:16;;;;;;;10.00;9.50;;;;;;;-143.83;100.00;62900.06;5081628;28;20047;-66
2022/10/29 02:09:55;;;;;;;10.27;9.77;;;;;;;-143.83;100.00;62900.06;5083147;28;20027;-67
2022/10/29 02:12:46;;;;;;;10.13;9.63;;;;;;;-143.83;100.00;62900.06;5085005;28;20032;-68
2022/10/29 02:15:29;;;;;;;10.10;9.60;;;;;;;-143.83;100.00;62900.06;5084082;28;20023;-66
2022/10/29 02:17:59;;;;;;;9.73;9.23;;;;;;;-143.83;100.00;62900.06;5086824;28;20039;-66
2022/10/29 02:20:24;;;;;;;10.20;9.70;;;;;;;-143.83;100.00;62900.06;5090415;28;20020;-65
2022/10/29 02:22:50;;;;;;;10.45;9.93;;;;;;;-143.83;100.00;62900.06;5083206;28;20028;-66
2022/10/29 02:25:15;;;;;;;9.93;9.43;;;;;;;-143.83;100.00;62900.06;5085238;28;20036;-66
2022/10/29 02:27:41;;;;;;;10.30;9.80;;;;;;;-143.83;100.00;62900.06;5077890;28;20440;-66
2022/10/29 02:30:07;;;;;;;10.02;9.52;;;;;;;-143.83;100.00;62900.06;5080483;28;20027;-66
2022/10/29 02:32:33;;;;;;;9.52;9.07;;;;;;;-143.83;100.00;62900.06;5083264;28;20119;-66
2022/10/29 02:34:59;;;;;;;10.20;9.70;;;;;;;-143.83;100.00;62900.06;5084112;28;20115;-66
2022/10/29 02:37:25;;;;;;;9.80;9.30;;;;;;;-143.83;100.00;62900.06;5083152;28;20132;-66
2022/10/29 02:39:51;;;;;;;10.25;9.75;;;;;;;-143.83;100.00;62900.06;5081778;28;20526;-66
2022/10/29 02:42:16;;;;;;;10.20;9.70;;;;;;;-143.83;100.00;62900.06;5086468;28;20030;-66
2022/10/29 02:44:41;;;;;;;10.00;9.50;;;;;;;-143.83;100.00;62900.06;5081599;28;20016;-67
2022/10/29 02:47:07;;;;;;;10.20;9.70;;;;;;;-143.83;100.00;62900.06;5078966;28;20028;-66
2022/10/29 02:49:32;;;;;;;10.80;10.20;;;;;;;-143.83;100.00;62900.06;5080204;28;20094;-67
2022/10/29 02:51:58;;;;;;;10.65;10.10;;;;;;;-143.83;100.00;62900.06;5078397;28;20131;-67
2022/10/29 02:54:23;;;;;;;10.00;9.50;;;;;;;-143.83;100.00;62900.06;5079301;28;20044;-66
2022/10/29 02:56:49;;;;;;;10.43;9.90;;;;;;;-143.83;100.00;62900.06;5077546;28;20040;-67
2022/10/29 02:59:14;;;;;;;10.27;9.77;;;;;;;-143.83;100.00;62900.06;5084368;28;20357;-66
2022/10/29 03:01:39;;;;;;;10.32;9.82;;;;;;;-143.83;100.00;62900.06;5080003;28;20024;-66
2022/10/29 03:04:05;;;;;;;10.60;10.02;;;;;;;-143.83;100.00;62900.06;5083577;28;20398;-66
2022/10/29 03:06:30;;;;;;;10.23;9.73;;;;;;;-143.83;100.00;62900.06;5080269;28;20020;-66
2022/10/29 03:08:56;;;;;;;10.82;10.23;;;;;;;-143.83;100.00;62900.06;5076387;28;20103;-66
2022/10/29 03:11:21;;;;;;;10.07;9.57;;;;;;;-143.83;100.00;62900.06;5084442;28;20506;-66
2022/10/29 03:13:47;;;;;;;10.27;9.77;;;;;;;-143.83;100.00;62900.06;5084033;28;20024;-66
2022/10/29 03:16:12;;;;;;;10.65;10.05;;;;;;;-143.83;100.00;62900.06;5088668;28;20031;-66
2022/10/29 03:18:38;;;;;;;11.00;10.40;;;;;;;-143.83;100.00;62900.06;5091406;28;20196;-66
2022/10/29 03:21:03;;;;;;;10.10;9.60;;;;;;;-143.83;100.00;62900.06;5084789;28;20024;-66
2022/10/29 03:23:29;;;;;;;10.45;9.93;;;;;;;-143.83;100.00;62900.06;5088743;28;20111;-66
2022/10/29 03:25:55;;;;;;;10.52;9.93;;;;;;;-143.83;100.00;62900.06;5088862;28;20054;-67
2022/10/29 03:28:21;;;;;;;9.80;9.30;;;;;;;-143.83;100.00;62900.06;5088125;28;20032;-66
2022/10/29 03:30:47;;;;;;;10.20;9.70;;;;;;;-143.83;100.00;62900.06;5083822;28;20030;-66
2022/10/29 03:33:13;;;;;;;9.95;9.45;;;;;;;-143.83;100.00;62900.06;5085405;28;20098;-66
2022/10/29 03:35:39;;;;;;;10.38;9.88;;;;;;;-143.83;100.00;62900.06;5085438;28;20035;-66
2022/10/29 03:38:04;;;;;;;10.25;9.75;;;;;;;-143.83;100.00;62900.06;5083514;28;20123;-66
2022/10/29 03:40:30;;;;;;;9.65;9.15;;;;;;;-143.83;100.00;62900.06;5089314;28;20107;-66
2022/10/29 03:42:55;;;;;;;10.13;9.63;;;;;;;-143.83;100.00;62900.06;5078120;28;20044;-66
2022/10/29 03:45:21;;;;;;;11.05;10.45;;;;;;;-143.83;100.00;62900.06;5088612;28;20451;-67
2022/10/29 03:47:46;;;;;;;9.45;9.00;;;;;;;-143.83;100.00;62900.06;5089815;28;20095;-66
2022/10/29 03:50:12;;;;;;;9.90;9.40;;;;;;;-143.83;100.00;62900.06;5084737;28;20059;-66
2022/10/29 03:52:37;;;;;;;9.88;9.38;;;;;;;-143.83;100.00;62900.06;5088183;28;20114;-66
2022/10/29 03:55:04;;;;;;;10.80;10.20;;;;;;;-143.83;100.00;62900.06;5089664;28;20387;-66
2022/10/29 03:57:30;;;;;;;9.98;9.48;;;;;;;-143.83;100.00;62900.06;5082607;28;20173;-66
2022/10/29 03:59:56;;;;;;;9.90;9.40;;;;;;;-143.83;100.00;62900.06;5083062;28;20016;-66
2022/10/29 04:02:21;;;;;;;10.05;9.55;;;;;;;-143.83;100.00;62900.06;5088053;28;20162;-66
2022/10/29 04:04:47;;;;;;;9.82;9.32;;;;;;;-143.83;100.00;62900.06;5082017;28;20495;-66
2022/10/29 04:07:13;;;;;;;10.13;9.63;;;;;;;-143.83;100.00;62900.06;5088277;28;20020;-66
2022/10/29 04:09:38;;;;;;;9.80;9.30;;;;;;;-143.83;100.00;62900.06;5083594;28;20024;-66
2022/10/29 04:12:05;;;;;;;10.18;9.68;;;;;;;-143.83;100.00;62900.06;5083630;28;20039;-67
2022/10/29 04:14:30;;;;;;;9.50;9.00;;;;;;;-143.83;100.00;62900.06;5084561;28;20012;-66
2022/10/29 04:16:57;;;;;;;10.07;9.57;;;;;;;-143.83;100.00;62900.06;5084921;28;20032;-67
2022/10/29 04:19:22;;;;;;;9.90;9.40;;;;;;;-143.83;100.00;62900.06;5084963;28;20056;-66
2022/10/29 04:21:48;;;;;;;10.23;9.73;;;;;;;-143.83;100.00;62900.06;5083580;28;20048;-66
2022/10/29 04:24:13;;;;;;;9.90;9.40;;;;;;;-143.83;100.00;62900.06;5084014;28;20141;-66
2022/10/29 04:26:42;;;;;;;9.43;8.98;;;;;;;-143.83;100.00;62900.06;5083256;28;20460;-66
2022/10/29 04:29:07;;;;;;;10.07;9.57;;;;;;;-143.83;100.00;62900.06;5084126;28;20028;-66
2022/10/29 04:31:32;;;;;;;9.52;9.05;;;;;;;-143.83;100.00;62900.06;5081848;28;20457;-65
2022/10/29 04:33:58;;;;;;;10.82;10.23;;;;;;;-143.83;100.00;62900.06;5091150;28;20028;-66
2022/10/29 04:36:23;;;;;;;10.73;10.13;;;;;;;-143.83;100.00;62900.06;5083525;28;20114;-66
2022/10/29 04:38:49;;;;;;;10.15;9.65;;;;;;;-143.83;100.00;62900.06;5083483;28;20486;-66
2022/10/29 04:41:15;;;;;;;10.38;9.88;;;;;;;-143.83;100.00;62900.06;5084573;28;20137;-66
2022/10/29 04:43:40;;;;;;;9.90;9.40;;;;;;;-143.83;100.00;62900.06;5081527;28;20028;-67
2022/10/29 04:46:06;;;;;;;10.38;9.85;;;;;;;-143.83;100.00;62900.06;5082256;28;20046;-67
2022/10/29 04:48:31;;;;;;;10.38;9.88;;;;;;;-143.83;100.00;62900.06;5083260;28;20478;-67
2022/10/29 04:50:57;;;;;;;10.07;9.57;;;;;;;-143.83;100.00;62900.06;5086058;28;20023;-66
2022/10/29 04:53:22;;;;;;;10.38;9.82;;;;;;;-143.83;100.00;62900.06;5059435;28;20399;-66
2022/10/29 04:55:48;;;;;;;10.23;9.73;;;;;;;-143.83;100.00;62900.06;5082531;28;20116;-66
2022/10/29 04:58:16;;;;;;;9.73;9.23;;;;;;;-143.83;100.00;62900.06;5077885;28;20625;-65
2022/10/29 05:00:42;;;;;;;9.93;9.43;;;;;;;-143.83;100.00;62900.06;5079799;28;20484;-65
2022/10/29 05:03:08;;;;;;;10.05;9.55;;;;;;;-143.83;100.00;62900.06;5082235;28;20032;-67
2022/10/29 05:05:35;;;;;;;9.35;8.90;;;;;;;-143.83;100.00;62900.06;5079404;28;20019;-66
2022/10/29 05:08:02;;;;;;;10.07;9.57;;;;;;;-143.83;100.00;62900.06;5081741;28;20020;-66
2022/10/29 05:10:34;;;;;;;9.75;9.25;;;;;;;-143.83;100.00;62900.06;5078260;28;20028;-66
2022/10/29 05:13:02;;;;;;;9.73;9.23;;;;;;;-143.83;100.00;62900.06;5084594;28;20544;-66
2022/10/29 05:15:28;;;;;;;9.75;9.25;;;;;;;-143.83;100.00;62900.06;5081219;28;20035;-63
2022/10/29 05:17:55;;;;;;;9.70;9.20;;;;;;;-143.83;100.00;62900.06;5081110;28;20047;-64
2022/10/29 05:20:21;;;;;;;10.00;9.50;;;;;;;-143.83;100.00;62900.06;5081674;28;20032;-64
2022/10/29 05:22:47;;;;;;;9.77;9.30;;;;;;;-143.83;100.00;62900.06;5083253;28;20203;-64
2022/10/29 05:25:13;;;;;;;9.55;9.13;;;;;;;-143.83;100.00;62900.06;5080649;28;20067;-65
2022/10/29 05:27:38;;;;;;;10.43;9.93;;;;;;;-143.83;100.00;62900.06;5083855;28;20031;-64
2022/10/29 05:30:04;;;;;;;10.52;10.02;;;;;;;-143.83;100.00;62900.06;5079700;28;20408;-64
2022/10/29 05:32:30;;;;;;;10.15;9.65;;;;;;;-143.83;100.00;62900.06;5085252;28;20027;-65
2022/10/29 05:34:55;;;;;;;10.30;9.80;;;;;;;-143.83;100.00;62900.06;5085994;28;20046;-65
2022/10/29 05:37:24;;;;;;;10.00;9.50;;;;;;;-143.83;100.00;62900.06;5079137;28;20028;-65
2022/10/29 05:39:50;;;;;;;10.30;9.80;;;;;;;-143.83;100.00;62900.06;5084860;28;20513;-65
2022/10/29 05:42:15;;;;;;;10.30;9.80;;;;;;;-143.83;100.00;62900.06;5082793;28;20024;-64
2022/10/29 05:44:41;;;;;;;10.38;9.88;;;;;;;-143.83;100.00;62900.06;5080474;28;20047;-64
2022/10/29 05:47:06;;;;;;;9.98;9.55;;;;;;;-143.83;100.00;62900.06;5087951;28;20104;-65
2022/10/29 05:49:31;;;;;;;10.88;10.38;;;;;;;-143.83;100.00;62900.06;5084221;28;20510;-64
2022/10/29 05:51:57;;;;;;;10.93;10.43;;;;;;;-143.83;100.00;62900.06;5086806;28;20035;-66
2022/10/29 05:54:22;;;;;;;10.38;9.88;;;;;;;-143.83;100.00;62900.06;5084218;28;20028;-64
2022/10/29 05:56:48;;;;;;;10.48;9.98;;;;;;;-143.83;100.00;62900.06;5077264;28;20020;-64
2022/10/29 05:59:13;;;;;;;10.50;10.00;;;;;;;-143.83;100.00;62900.06;5081485;28;20491;-63
2022/10/29 06:01:39;;;;;;;10.45;9.95;;;;;;;-143.83;100.00;62900.06;5084584;28;20537;-63
2022/10/29 06:04:04;;;;;;;10.43;9.93;;;;;;;-143.83;100.00;62900.06;5088184;28;20024;-62
2022/10/29 06:06:30;;;;;;;10.32;9.88;;;;;;;-143.83;100.00;62900.06;5073699;28;20036;-64
2022/10/29 06:08:55;;;;;;;11.60;11.10;;;;;;;-143.83;100.00;62900.06;5064657;28;20079;-64
2022/10/29 06:11:21;;;;;;;11.15;10.65;;;;;;;-143.83;100.00;62900.06;5084701;28;20489;-64
2022/10/29 06:13:46;;;;;;;10.70;10.20;;;;;;;-143.83;100.00;62900.06;5074573;28;20051;-65
2022/10/29 06:16:12;;;;;;;10.85;10.35;;;;;;;-143.83;100.00;62900.06;5078729;28;20028;-68
2022/10/29 06:18:37;;;;;;;10.95;10.45;;;;;;;-143.83;100.00;62900.06;5084127;28;20047;-68
2022/10/29 06:21:03;;;;;;;10.68;10.18;;;;;;;-143.83;100.00;62900.06;5082329;28;20039;-67
2022/10/29 06:23:29;;;;;;;10.68;10.18;;;;;;;-143.83;100.00;62900.06;5082822;28;20035;-67
2022/10/29 06:25:54;;;;;;;10.50;10.00;;;;;;;-143.83;100.00;62900.06;5082592;28;20024;-67
2022/10/29 06:28:19;;;;;;;11.02;10.52;;;;;;;-143.83;100.00;62900.06;5084672;28;20486;-68
2022/10/29 06:30:48;;;;;;;11.10;10.60;;;;;;;-143.83;100.00;62900.06;5078007;28;20057;-67
2022/10/29 06:33:13;;;;;;;11.13;10.63;;;;;;;-143.83;100.00;62900.06;5083496;28;20025;-68
2022/10/29 06:35:39;;;;;;;10.82;10.32;;;;;;;-143.83;100.00;62900.06;5079211;28;20029;-66
2022/10/29 06:38:05;;;;;;;10.90;10.40;;;;;;;-143.83;100.00;62900.06;5081000;28;20024;-68
2022/10/29 06:40:30;;;;;;;10.77;10.27;;;;;;;-143.83;100.00;62900.06;5080307;28;20066;-67
2022/10/29 06:43:00;;;;;;;10.88;10.38;;;;;;;-143.83;100.00;62900.06;5081007;28;20020;-67
2022/10/29 06:45:27;;;;;;;10.88;10.38;;;;;;;-143.83;100.00;62900.06;5080419;28;20012;-67
2022/10/29 06:47:53;;;;;;;11.20;10.70;;;;;;;-143.83;100.00;62900.06;5079442;28;20043;-68
2022/10/29 06:50:19;;;;;;;10.70;10.20;;;;;;;-143.83;100.00;62900.06;5079827;28;20028;-69
2022/10/29 06:53:12;;;;;;;10.77;10.27;;;;;;;-143.83;100.00;62900.06;5085982;28;20063;-69
2022/10/29 06:55:38;;;;;;;10.82;10.32;;;;;;;-143.83;100.00;62900.06;5093295;28;20019;-69
2022/10/29 06:58:09;;;;;;;10.50;10.00;;;;;;;-143.83;100.00;62900.06;5087988;28;20391;-70
2022/10/29 07:00:35;;;;;;;10.55;10.05;;;;;;;-143.83;100.00;62900.06;5083890;28;20023;-69
2022/10/29 07:03:02;;;;;;;10.30;9.90;;;;;;;-143.83;100.00;62900.06;5085395;28;20507;-69
2022/10/29 07:05:28;;;;;;;10.27;9.88;;;;;;;-143.83;100.00;62900.06;5088405;28;20089;-70
2022/10/29 07:07:58;;;;;;;10.40;10.00;;;;;;;-143.83;100.00;62900.06;5087998;28;20082;-68
2022/10/29 07:10:25;;;;;;;10.30;9.90;;;;;;;-143.83;100.00;62900.06;5090966;28;20020;-68
2022/10/29 07:12:51;;;;;;;10.57;10.07;;;;;;;-143.83;100.00;62900.06;5086922;28;20088;-69
2022/10/29 07:15:20;;;;;;;10.75;10.25;;;;;;;-143.83;100.00;62900.06;5088365;28;20023;-70
2022/10/29 07:18:04;;;;;;;10.93;10.43;;;;;;;-143.83;100.00;62900.06;5083394;28;20028;-70
2022/10/29 07:20:36;;;;;;;10.30;9.90;;;;;;;-143.83;100.00;62900.06;5088209;28;20032;-68
2022/10/29 07:23:02;;;;;;;10.75;10.25;;;;;;;-143.83;100.00;62900.06;5083626;28;20031;-69
2022/10/29 07:25:28;;;;;;;10.68;10.18;;;;;;;-143.83;100.00;62900.06;5088182;28;20025;-70
2022/10/29 07:27:54;;;;;;;10.80;10.30;;;;;;;-143.83;100.00;62900.06;5087418;28;20044;-71
2022/10/29 07:30:20;;;;;;;10.60;10.10;;;;;;;-143.83;100.00;62900.06;5086425;28;20097;-71
2022/10/29 07:32:46;;;;;;;10.90;10.40;;;;;;;-143.83;100.00;62900.06;5089653;28;20031;-70
2022/10/29 07:35:11;;;;;;;10.85;10.35;;;;;;;-143.83;100.00;62900.06;5087561;28;20027;-71
2022/10/29 07:37:37;;;;;;;10.65;10.15;;;;;;;-143.83;100.00;62900.06;5090306;28;20047;-72
2022/10/29 07:40:03;;;;;;;10.82;10.32;;;;;;;-143.83;100.00;62900.06;5081628;28;20024;-70
2022/10/29 07:42:28;;;;;;;10.30;9.90;;;;;;;-143.83;100.00;62900.06;5085373;28;20024;-68
2022/10/29 07:44:54;;;;;;;10.30;9.88;;;;;;;-143.83;100.00;62900.06;5085867;28;20054;-69
2022/10/29 07:47:20;;;;;;;10.55;10.05;;;;;;;-143.83;100.00;62900.06;5085704;28;20054;-69
2022/10/29 07:49:45;;;;;;;10.82;10.32;;;;;;;-143.83;100.00;62900.06;5081623;28;20081;-67
2022/10/29 07:52:11;;;;;;;10.80;10.30;;;;;;;-143.83;100.00;62900.06;5086426;28;20553;-71
2022/10/29 07:54:36;;;;;;;10.73;10.23;;;;;;;-143.83;100.00;62900.06;5087542;28;20025;-67
2022/10/29 07:57:02;;;;;;;10.65;10.15;;;;;;;-143.83;100.00;62900.06;5084731;28;20032;-68
2022/10/29 07:59:27;;;;;;;10.60;10.10;;;;;;;-143.83;100.00;62900.06;5086424;28;20061;-68
2022/10/29 08:01:53;;;;;;;10.80;10.30;;;;;;;-143.83;100.00;62900.06;5083486;28;20029;-68
2022/10/29 08:04:18;;;;;;;10.63;10.13;;;;;;;-143.83;100.00;62900.06;5084246;28;20035;-68
2022/10/29 08:06:44;;;;;;;10.60;10.10;;;;;;;-143.83;100.00;62900.06;5085509;28;20111;-67
2022/10/29 08:09:11;;;;;;;10.82;10.32;;;;;;;-143.83;100.00;62900.06;5086116;28;20081;-68
2022/10/29 08:11:37;;;;;;;10.50;10.00;;;;;;;-143.83;100.00;62900.06;5083067;28;20025;-68
2022/10/29 08:14:02;;;;;;;10.80;10.30;;;;;;;-143.83;100.00;62900.06;5084176;28;20023;-66
2022/10/29 08:16:28;;;;;;;10.68;10.18;;;;;;;-143.83;100.00;62900.06;5089261;28;20054;-67
2022/10/29 08:18:53;;;;;;;10.73;10.23;;;;;;;-143.83;100.00;62900.06;5089020;28;20110;-66
2022/10/29 08:21:19;;;;;;;10.60;10.10;;;;;;;-143.83;100.00;62900.06;5086515;28;20475;-67
2022/10/29 08:23:45;;;;;;;10.73;10.23;;;;;;;-143.83;100.00;62900.06;5083122;28;20059;-66
2022/10/29 08:26:13;;;;;;;10.73;10.23;;;;;;;-143.83;100.00;62900.06;5084244;28;20035;-67
2022/10/29 08:28:38;;;;;;;10.93;10.43;;;;;;;-143.83;100.00;62900.06;5089512;28;20035;-67
2022/10/29 08:31:07;;;;;;;10.82;10.32;;;;;;;-143.83;100.00;62900.06;5077745;28;20041;-68
2022/10/29 08:33:34;;;;;;;10.60;10.10;;;;;;;-143.83;100.00;62900.06;5081217;28;20077;-69
2022/10/29 08:36:00;;;;;;;10.98;10.48;;;;;;;-143.83;100.00;62900.06;5082494;28;20036;-69
2022/10/29 08:38:25;;;;;;;10.93;10.43;;;;;;;-143.83;100.00;62900.06;5087448;28;20391;-69
2022/10/29 08:41:40;;;;;;;10.68;10.18;;;;;;;-143.83;100.00;62900.06;5080312;28;20027;-69
2022/10/29 08:44:14;;;;;;;;;;;;;;;-143.83;100.00;62900.06;5058460;28;20114;-70
2022/10/29 08:46:48;;;;;;;10.50;10.00;;;;;;;-143.83;100.00;62900.06;5084541;28;19926;-69
2022/10/29 08:49:40;;;;;;;10.60;10.10;;;;;;;-143.83;100.00;62900.06;5090165;28;20426;-69
2022/10/29 08:52:15;;;;;;;10.93;10.43;;;;;;;-143.83;100.00;62900.06;5087296;28;20109;-69
2022/10/29 08:54:47;;;;;;;10.65;10.15;;;;;;;-143.83;100.00;62900.06;5086673;28;20041;-70
2022/10/29 08:57:16;;;;;;;10.88;10.38;;;;;;;-143.83;100.00;62900.06;5075944;28;20032;-70
2022/10/29 08:59:53;;;;;;;11.00;10.50;;;;;;;-143.83;100.00;62900.06;5081802;28;20032;-71
2022/10/29 09:02:19;;;;;;;10.75;10.25;;;;;;;-143.83;100.00;62900.06;5082120;28;20020;-72
2022/10/29 09:04:44;;;;;;;10.98;10.48;;;;;;;-143.83;100.00;62900.06;5086740;28;20089;-72
2022/10/29 09:07:44;;;;;;;10.80;10.30;;;;;;;-143.83;100.00;62900.06;5081005;28;20067;-70
2022/10/29 09:10:51;;;;;;;10.70;10.20;;;;;;;-143.83;100.00;62900.06;5080606;28;20045;-73
2022/10/29 09:13:59;;;;;;;10.85;10.35;;;;;;;-143.83;100.00;62900.06;5076228;28;20025;-70
2022/10/29 09:16:48;;;;;;;10.63;10.13;;;;;;;-143.83;100.00;62900.06;5082776;28;20028;-69
2022/10/29 09:19:43;;;;;;;11.07;10.57;;;;;;;-143.83;100.00;62900.06;5080483;28;20028;-72
2022/10/29 09:22:34;;;;;;;10.63;10.13;;;;;;;-143.83;100.00;62900.06;5080564;28;20036;-71
2022/10/29 09:25:23;;;;;;;11.15;10.65;;;;;;;-143.83;100.00;62900.06;5083949;28;20066;-69
2022/10/29 09:28:07;;;;;;;11.80;11.30;;;;;;;-143.83;100.00;62900.06;5079576;28;20035;-71
2022/10/29 09:30:41;;;;;;;11.85;11.30;;;;;;;-143.83;100.00;62900.06;5082423;28;20040;-72
2022/10/29 09:33:16;;;;;;;11.50;11.00;;;;;;;-143.83;100.00;62900.06;5082877;28;20029;-71
2022/10/29 09:35:56;;;;;;;11.88;11.30;;;;;;;-143.83;100.00;62900.06;5102392;28;20050;-71
2022/10/29 09:38:33;;;;;;;11.30;10.80;;;;;;;-143.83;100.00;62900.06;5104921;28;20097;-70
2022/10/29 09:41:02;;;;;;;12.10;11.50;;;;;;;-143.83;100.00;62900.06;5077198;28;20036;-69
2022/10/29 09:43:44;;;;;;;11.25;10.75;;;;;;;-143.83;100.00;62900.06;5083143;28;20028;-68
2022/10/29 09:46:30;;;;;;;12.27;11.68;;;;;;;-143.83;100.00;62900.06;5073101;28;20051;-68
2022/10/29 09:49:23;;;;;;;13.05;12.38;;;;;;;-143.83;100.00;62900.06;5084440;28;20112;-68
2022/10/29 09:51:55;;;;;;;14.25;13.50;;;;;;;-143.83;100.00;62900.06;5074622;28;20052;-69
2022/10/29 09:54:24;;;;;;;12.20;11.60;;;;;;;-143.83;100.00;62900.06;5074163;28;20024;-69
2022/10/29 09:56:50;;;;;;;11.45;10.95;;;;;;;-143.83;100.00;62900.06;5083235;28;20126;-68
2022/10/29 09:59:24;;;;;;;11.80;11.20;;;;;;;-143.83;100.00;62900.06;5077818;28;20074;-69
2022/10/29 10:01:50;;;;;;;14.65;13.85;;;;;;;-143.83;100.00;62900.06;5082865;28;20677;-68
2022/10/29 10:04:39;;;;;;;13.38;12.68;;;;;;;-143.83;100.00;62900.06;5073277;28;20118;-68
2022/10/29 10:07:15;;;;;;;11.85;11.25;;;;;;;-143.83;100.00;62900.06;5082127;28;20383;-66
2022/10/29 10:09:52;;;;;;;12.18;11.57;;;;;;;-143.83;100.00;62900.06;5079317;28;20052;-70
2022/10/29 10:12:19;;;;;;;11.60;11.00;;;;;;;-143.83;100.00;62900.06;5084948;28;20024;-68
2022/10/29 10:14:46;;;;;;;11.30;10.80;;;;;;;-143.83;100.00;62900.06;5086326;28;20027;-71
2022/10/29 10:17:12;;;;;;;11.10;10.60;;;;;;;-143.83;100.00;62900.06;5086121;28;20023;-70
2022/10/29 10:19:45;;;;;;;11.60;11.02;;;;;;;-143.83;100.00;62900.06;5084122;28;20029;-70
2022/10/29 10:22:20;;;;;;;11.75;11.15;;;;;;;-143.83;100.00;62900.06;5080133;28;20118;-70
2022/10/29 10:24:45;;;;;;;11.68;11.07;;;;;;;-143.83;100.00;62900.06;5076951;28;20487;-69
2022/10/29 10:27:16;;;;;;;11.13;10.63;;;;;;;-143.83;100.00;62900.06;5082558;28;20056;-69
2022/10/29 10:29:43;;;;;;;11.27;10.77;;;;;;;-143.83;100.00;62900.06;5082812;28;20023;-68
2022/10/29 10:32:13;;;;;;;11.55;10.95;;;;;;;-143.83;100.00;62900.06;5076594;28;20431;-68
2022/10/29 10:34:39;;;;;;;10.98;10.48;;;;;;;-143.83;100.00;62900.06;5085581;28;20024;-68
2022/10/29 10:37:17;;;;;;;11.43;10.93;;;;;;;-143.83;100.00;62900.06;5079161;28;20510;-70
2022/10/29 10:39:46;;;;;;;11.52;11.02;;;;;;;-143.83;100.00;62900.06;5077060;28;20032;-65
2022/10/29 10:42:23;;;;;;;10.98;10.48;;;;;;;-143.83;100.00;62900.06;5082255;28;20067;-71
2022/10/29 10:45:02;;;;;;;11.00;10.50;;;;;;;-143.83;100.00;62900.06;5081901;28;20086;-71
2022/10/29 10:47:34;;;;;;;11.18;10.68;;;;;;;-143.83;100.00;62900.06;5086854;28;20029;-70
2022/10/29 10:50:17;;;;;;;11.48;10.98;;;;;;;-143.83;100.00;62900.06;5081296;28;20024;-70
2022/10/29 10:52:44;;;;;;;11.43;10.93;;;;;;;-143.83;100.00;62900.06;5081548;28;20032;-71
2022/10/29 10:55:36;;;;;;;10.98;10.48;;;;;;;-143.83;100.00;62900.06;5085386;28;20032;-69
2022/10/29 10:58:13;;;;;;;11.50;11.00;;;;;;;-143.83;100.00;62900.06;5076605;28;20059;-70
2022/10/29 11:00:52;;;;;;;12.18;11.57;;;;;;;-143.83;100.00;62900.06;5074744;28;20090;-69
2022/10/29 11:03:29;;;;;;;11.10;10.60;;;;;;;-143.83;100.00;62900.06;5077599;28;20020;-68
2022/10/29 11:06:09;;;;;;;11.85;11.25;;;;;;;-143.83;100.00;62900.06;5081410;28;20058;-69
2022/10/29 11:08:47;;;;;;;11.20;10.70;;;;;;;-143.83;100.00;62900.06;5086216;28;20031;-72
2022/10/29 11:11:27;;;;;;;13.02;12.43;;;;;;;-143.83;100.00;62900.06;5069711;28;20453;-69
2022/10/29 11:13:59;;;;;;;11.38;10.88;;;;;;;-143.83;100.00;62900.06;5083538;28;20024;-69